createdAt,value
2022-10-11T00:00:33.633Z,99.99
2022-10-11T00:01:33.645Z,99.99
2022-10-11T00:02:33.551Z,99.99
2022-10-11T00:03:33.510Z,99.99
2022-10-11T00:04:33.476Z,99.99
2022-10-11T00:05:33.431Z,99.99
2022-10-11T00:06:33.381Z,99.99
2022-10-11T00:07:33.334Z,99.99
2022-10-11T00:08:33.293Z,99.99
2022-10-11T00:09:33.261Z,99.99
2022-10-11T00:10:33.207Z,99.99
2022-10-11T00:11:33.177Z,99.99
2022-10-11T00:12:33.125Z,99.99
2022-10-11T00:13:33.083Z,99.99
2022-10-11T00:14:33.039Z,99.99
2022-10-11T00:15:33.003Z,99.99
2022-10-11T00:16:32.953Z,99.99
2022-10-11T00:17:32.923Z,99.99
2022-10-11T00:18:32.870Z,99.99
2022-10-11T00:19:32.834Z,99.99
2022-10-11T00:20:32.786Z,99.99
2022-10-11T00:21:32.742Z,99.99
2022-10-11T00:22:32.719Z,99.99
2022-10-11T00:23:32.659Z,99.99
2022-10-11T00:24:32.614Z,99.99
2022-10-11T00:25:32.573Z,99.99
2022-10-11T00:26:32.532Z,99.99
2022-10-11T00:27:32.485Z,99.99
2022-10-11T00:28:32.510Z,99.99
2022-10-11T00:29:32.403Z,99.99
2022-10-11T00:30:32.363Z,99.99
2022-10-11T00:31:35.684Z,99.99
2022-10-11T00:32:32.279Z,99.99
2022-10-11T00:33:32.233Z,99.99
2022-10-11T00:34:32.202Z,99.99
2022-10-11T00:35:32.156Z,99.99
2022-10-11T00:36:32.108Z,99.99
2022-10-11T00:37:32.066Z,99.99
2022-10-11T00:38:32.231Z,99.99
2022-10-11T00:39:31.981Z,99.99
2022-10-11T00:40:31.952Z,99.99
2022-10-11T00:41:31.895Z,99.99
2022-10-11T00:42:31.857Z,99.99
2022-10-11T00:43:31.812Z,99.99
2022-10-11T00:44:31.771Z,99.99
2022-10-11T00:45:31.746Z,99.99
2022-10-11T00:46:31.696Z,99.99
2022-10-11T00:47:31.653Z,99.99
2022-10-11T00:48:31.601Z,99.99
2022-10-11T00:49:31.555Z,99.99
2022-10-11T00:50:31.518Z,99.99
2022-10-11T00:51:32.404Z,99.99
2022-10-11T00:52:31.435Z,99.99
2022-10-11T00:53:31.411Z,99.99
2022-10-11T00:54:31.349Z,99.99
2022-10-11T00:55:31.316Z,99.99
2022-10-11T00:56:31.263Z,99.99
2022-10-11T00:57:31.224Z,99.99
2022-10-11T00:58:31.175Z,99.99
2022-10-11T00:59:31.145Z,99.99
2022-10-11T01:00:31.090Z,99.99
2022-10-11T01:01:31.102Z,99.99
2022-10-11T01:02:31.005Z,99.99
2022-10-11T01:03:30.961Z,99.99
2022-10-11T01:04:30.923Z,99.99
2022-10-11T01:05:30.893Z,99.99
2022-10-11T01:06:30.844Z,99.99
2022-10-11T01:07:30.791Z,99.99
2022-10-11T01:08:30.754Z,99.99
2022-10-11T01:09:30.706Z,99.99
2022-10-11T01:10:30.671Z,99.99
2022-10-11T01:11:30.630Z,99.99
2022-10-11T01:12:30.582Z,99.99
2022-10-11T01:13:30.536Z,99.99
2022-10-11T01:14:30.493Z,99.99
2022-10-11T01:15:30.468Z,99.99
2022-10-11T01:16:30.411Z,99.99
2022-10-11T01:17:30.365Z,99.99
2022-10-11T01:18:30.329Z,99.99
2022-10-11T01:19:30.282Z,99.99
2022-10-11T01:20:30.241Z,99.99
2022-10-11T01:21:30.207Z,99.99
2022-10-11T01:22:30.157Z,99.99
2022-10-11T01:23:30.117Z,99.99
2022-10-11T01:24:30.069Z,99.99
2022-10-11T01:25:30.026Z,99.99
2022-10-11T01:26:29.984Z,99.99
2022-10-11T01:27:29.960Z,99.99
2022-10-11T01:28:29.929Z,99.99
2022-10-11T01:29:29.858Z,99.99
2022-10-11T01:30:29.818Z,99.99
2022-10-11T01:31:29.769Z,99.99
2022-10-11T01:32:29.731Z,99.99
2022-10-11T01:33:29.698Z,99.99
2022-10-11T01:34:29.643Z,99.99
2022-10-11T01:35:29.606Z,99.99
2022-10-11T01:36:29.567Z,99.99
2022-10-11T01:37:29.524Z,99.99
2022-10-11T01:38:29.476Z,99.99
2022-10-11T01:39:29.442Z,99.99
2022-10-11T01:40:29.387Z,99.99
2022-10-11T01:41:29.346Z,99.99
2022-10-11T01:42:29.318Z,99.99
2022-10-11T01:43:29.261Z,99.99
2022-10-11T01:44:29.218Z,99.99
2022-10-11T01:45:29.173Z,99.99
2022-10-11T01:46:29.131Z,99.99
2022-10-11T01:47:29.088Z,99.99
2022-10-11T01:48:29.063Z,99.99
2022-10-11T01:49:29.004Z,99.99
2022-10-11T01:50:28.961Z,99.99
2022-10-11T01:51:28.919Z,99.99
2022-10-11T01:52:28.880Z,99.99
2022-10-11T01:53:28.838Z,99.99
2022-10-11T01:54:44.096Z,99.99
2022-10-11T01:55:28.746Z,99.99
2022-10-11T01:56:28.706Z,99.99
2022-10-11T01:57:28.662Z,99.99
2022-10-11T01:58:28.623Z,99.99
2022-10-11T01:59:28.586Z,99.99
2022-10-11T02:00:28.551Z,99.99
2022-10-11T02:01:28.547Z,99.99
2022-10-11T02:02:28.449Z,99.99
2022-10-11T02:03:28.404Z,99.99
2022-10-11T02:04:28.365Z,99.99
2022-10-11T02:05:28.330Z,99.99
2022-10-11T02:06:28.282Z,99.99
2022-10-11T02:07:28.239Z,99.99
2022-10-11T02:08:28.192Z,99.99
2022-10-11T02:09:28.158Z,99.99
2022-10-11T02:10:28.109Z,99.99
2022-10-11T02:11:28.079Z,99.99
2022-10-11T02:12:28.021Z,99.99
2022-10-11T02:13:27.980Z,99.99
2022-10-11T02:14:27.935Z,99.99
2022-10-11T02:15:27.892Z,99.99
2022-10-11T02:16:27.867Z,99.99
2022-10-11T02:17:27.806Z,99.99
2022-10-11T02:18:27.765Z,99.99
2022-10-11T02:19:27.722Z,99.99
2022-10-11T02:20:27.687Z,99.99
2022-10-11T02:21:27.649Z,99.99
2022-10-11T02:22:27.602Z,99.99
2022-10-11T02:23:27.557Z,99.99
2022-10-11T02:24:27.513Z,99.99
2022-10-11T02:25:27.461Z,99.99
2022-10-11T02:26:27.434Z,99.99
2022-10-11T02:27:27.380Z,99.99
2022-10-11T02:28:27.388Z,99.99
2022-10-11T02:29:27.300Z,99.99
2022-10-11T02:30:27.253Z,99.99
2022-10-11T02:31:27.207Z,99.99
2022-10-11T02:32:27.175Z,99.99
2022-10-11T02:33:27.137Z,99.99
2022-10-11T02:34:27.082Z,99.99
2022-10-11T02:35:27.034Z,99.99
2022-10-11T02:36:26.995Z,99.99
2022-10-11T02:37:26.951Z,99.99
2022-10-11T02:38:26.909Z,99.99
2022-10-11T02:39:26.881Z,99.99
2022-10-11T02:40:26.829Z,99.99
2022-10-11T02:41:26.777Z,99.99
2022-10-11T02:42:26.733Z,99.99
2022-10-11T02:43:26.692Z,99.99
2022-10-11T02:44:26.659Z,99.99
2022-10-11T02:45:26.609Z,99.99
2022-10-11T02:46:26.563Z,99.99
2022-10-11T02:47:26.524Z,99.99
2022-10-11T02:48:26.479Z,99.99
2022-10-11T02:49:26.437Z,99.99
2022-10-11T02:50:26.410Z,99.99
2022-10-11T02:51:26.346Z,99.99
2022-10-11T02:52:26.308Z,99.99
2022-10-11T02:53:26.270Z,99.99
2022-10-11T02:54:26.219Z,99.99
2022-10-11T02:55:26.191Z,99.99
2022-10-11T02:56:26.146Z,99.99
2022-10-11T02:57:26.087Z,99.99
2022-10-11T02:58:26.049Z,99.99
2022-10-11T02:59:26.014Z,99.99
2022-10-11T03:00:35.152Z,99.99
2022-10-11T03:01:26.012Z,99.99
2022-10-11T03:02:25.885Z,99.99
2022-10-11T03:03:25.833Z,99.99
2022-10-11T03:04:25.791Z,99.99
2022-10-11T03:05:25.745Z,99.99
2022-10-11T03:06:25.704Z,99.99
2022-10-11T03:07:25.674Z,99.99
2022-10-11T03:08:25.617Z,99.99
2022-10-11T03:09:25.575Z,99.99
2022-10-11T03:10:25.547Z,99.99
2022-10-11T03:11:25.493Z,99.99
2022-10-11T03:12:25.445Z,99.99
2022-10-11T03:13:25.402Z,99.99
2022-10-11T03:14:25.358Z,99.99
2022-10-11T03:15:25.317Z,99.99
2022-10-11T03:16:25.289Z,99.99
2022-10-11T03:17:36.279Z,99.99
2022-10-11T03:18:25.188Z,99.99
2022-10-11T03:19:25.146Z,99.99
2022-10-11T03:20:25.103Z,99.99
2022-10-11T03:21:25.061Z,99.99
2022-10-11T03:22:25.022Z,99.99
2022-10-11T03:23:24.994Z,99.99
2022-10-11T03:24:24.929Z,99.99
2022-10-11T03:25:24.894Z,99.99
2022-10-11T03:26:24.857Z,99.99
2022-10-11T03:27:24.801Z,99.99
2022-10-11T03:28:24.818Z,99.99
2022-10-11T03:29:24.733Z,99.99
2022-10-11T03:30:24.672Z,99.99
2022-10-11T03:31:24.628Z,99.99
2022-10-11T03:32:24.598Z,99.99
2022-10-11T03:33:24.543Z,99.99
2022-10-11T03:34:24.496Z,99.99
2022-10-11T03:35:24.471Z,99.99
2022-10-11T03:36:24.425Z,99.99
2022-10-11T03:37:24.368Z,99.99
2022-10-11T03:38:25.144Z,99.99
2022-10-11T03:39:24.283Z,99.99
2022-10-11T03:40:24.243Z,99.99
2022-10-11T03:41:24.196Z,99.99
2022-10-11T03:42:24.172Z,99.99
2022-10-11T03:43:24.122Z,99.99
2022-10-11T03:44:24.067Z,99.99
2022-10-11T03:45:24.025Z,99.99
2022-10-11T03:46:23.978Z,99.99
2022-10-11T03:47:23.939Z,99.99
2022-10-11T03:48:23.928Z,99.99
2022-10-11T03:49:23.852Z,99.99
2022-10-11T03:50:23.807Z,99.99
2022-10-11T03:51:23.764Z,99.99
2022-10-11T03:52:23.722Z,99.99
2022-10-11T03:53:23.689Z,99.99
2022-10-11T03:54:23.636Z,99.99
2022-10-11T03:55:23.603Z,99.99
2022-10-11T03:56:23.548Z,99.99
2022-10-11T03:57:23.518Z,99.99
2022-10-11T03:58:23.460Z,99.99
2022-10-11T03:59:23.434Z,99.99
2022-10-11T04:00:23.407Z,99.99
2022-10-11T04:01:23.408Z,99.99
2022-10-11T04:02:23.289Z,99.99
2022-10-11T04:03:23.254Z,99.99
2022-10-11T04:04:23.202Z,99.99
2022-10-11T04:05:23.170Z,99.99
2022-10-11T04:06:23.114Z,99.99
2022-10-11T04:07:23.073Z,99.99
2022-10-11T04:08:23.029Z,99.99
2022-10-11T04:09:22.985Z,99.99
2022-10-11T04:10:22.963Z,99.99
2022-10-11T04:11:22.915Z,99.99
2022-10-11T04:12:22.857Z,99.99
2022-10-11T04:13:22.813Z,99.99
2022-10-11T04:14:22.770Z,99.99
2022-10-11T04:15:22.728Z,99.99
2022-10-11T04:16:22.685Z,99.99
2022-10-11T04:17:22.656Z,99.99
2022-10-11T04:18:22.595Z,99.99
2022-10-11T04:19:22.560Z,99.99
2022-10-11T04:20:22.516Z,99.99
2022-10-11T04:21:22.470Z,99.99
2022-10-11T04:22:22.428Z,99.99
2022-10-11T04:23:22.391Z,99.99
2022-10-11T04:24:22.337Z,99.99
2022-10-11T04:25:22.294Z,99.99
2022-10-11T04:26:22.252Z,99.99
2022-10-11T04:27:22.210Z,99.99
2022-10-11T04:28:22.222Z,99.99
2022-10-11T04:29:22.132Z,99.99
2022-10-11T04:30:22.083Z,99.99
2022-10-11T04:31:22.038Z,99.99
2022-10-11T04:32:21.992Z,99.99
2022-10-11T04:33:21.948Z,99.99
2022-10-11T04:34:21.902Z,99.99
2022-10-11T04:35:21.872Z,99.99
2022-10-11T04:36:21.817Z,99.99
2022-10-11T04:37:21.773Z,99.99
2022-10-11T04:38:21.728Z,99.99
2022-10-11T04:39:21.688Z,99.99
2022-10-11T04:40:21.644Z,99.99
2022-10-11T04:41:21.608Z,99.99
2022-10-11T04:42:21.563Z,99.99
2022-10-11T04:43:21.514Z,99.99
2022-10-11T04:44:21.469Z,99.99
2022-10-11T04:45:21.428Z,99.99
2022-10-11T04:46:21.569Z,99.99
2022-10-11T04:47:21.351Z,99.99
2022-10-11T04:48:21.296Z,99.99
2022-10-11T04:49:21.252Z,99.99
2022-10-11T04:50:21.212Z,99.99
2022-10-11T04:51:21.170Z,99.99
2022-10-11T04:52:24.772Z,99.99
2022-10-11T04:53:21.082Z,99.99
2022-10-11T04:54:21.034Z,99.99
2022-10-11T04:55:20.998Z,99.99
2022-10-11T04:56:20.950Z,99.99
2022-10-11T04:57:20.909Z,99.99
2022-10-11T04:58:20.877Z,99.99
2022-10-11T04:59:20.819Z,99.99
2022-10-11T05:00:20.776Z,99.99
2022-10-11T05:01:20.731Z,99.99
2022-10-11T05:02:20.791Z,99.99
2022-10-11T05:03:20.643Z,99.99
2022-10-11T05:04:20.615Z,99.99
2022-10-11T05:05:20.574Z,99.99
2022-10-11T05:06:20.523Z,99.99
2022-10-11T05:07:20.474Z,99.99
2022-10-11T05:08:20.431Z,99.99
2022-10-11T05:09:20.403Z,99.99
2022-10-11T05:10:20.344Z,99.99
2022-10-11T05:11:20.305Z,99.99
2022-10-11T05:12:20.257Z,99.99
2022-10-11T05:13:20.215Z,99.99
2022-10-11T05:14:20.177Z,99.99
2022-10-11T05:15:20.145Z,99.99
2022-10-11T05:16:20.084Z,99.99
2022-10-11T05:17:20.063Z,99.99
2022-10-11T05:18:20.012Z,99.99
2022-10-11T05:19:19.964Z,99.99
2022-10-11T05:20:19.915Z,99.99
2022-10-11T05:21:19.873Z,99.99
2022-10-11T05:22:19.828Z,99.99
2022-10-11T05:23:19.799Z,99.99
2022-10-11T05:24:19.750Z,99.99
2022-10-11T05:25:19.704Z,99.99
2022-10-11T05:26:19.663Z,99.99
2022-10-11T05:27:19.622Z,99.99
2022-10-11T05:28:19.607Z,99.99
2022-10-11T05:29:19.572Z,99.99
2022-10-11T05:30:19.485Z,99.99
2022-10-11T05:31:19.466Z,99.99
2022-10-11T05:32:19.415Z,99.99
2022-10-11T05:33:19.378Z,99.99
2022-10-11T05:34:19.324Z,99.99
2022-10-11T05:35:19.396Z,99.99
2022-10-11T05:36:20.124Z,99.99
2022-10-11T05:37:19.256Z,99.99
2022-10-11T05:38:19.704Z,99.99
2022-10-11T05:39:19.105Z,99.99
2022-10-11T05:40:19.060Z,99.99
2022-10-11T05:41:19.018Z,99.99
2022-10-11T05:42:18.988Z,99.99
2022-10-11T05:43:18.942Z,99.99
2022-10-11T05:44:18.904Z,99.99
2022-10-11T05:45:18.849Z,99.99
2022-10-11T05:46:18.805Z,99.99
2022-10-11T05:47:18.766Z,99.99
2022-10-11T05:48:18.760Z,99.99
2022-10-11T05:49:18.677Z,99.99
2022-10-11T05:50:23.318Z,99.99
2022-10-11T05:51:18.608Z,99.99
2022-10-11T05:52:18.548Z,99.99
2022-10-11T05:53:18.524Z,99.99
2022-10-11T05:54:18.465Z,99.99
2022-10-11T05:55:18.426Z,99.99
2022-10-11T05:56:18.381Z,99.99
2022-10-11T05:57:18.337Z,99.99
2022-10-11T05:58:18.293Z,99.99
2022-10-11T05:59:18.266Z,99.99
2022-10-11T06:00:18.214Z,99.99
2022-10-11T06:01:18.252Z,99.99
2022-10-11T06:02:18.124Z,99.99
2022-10-11T06:03:18.083Z,99.99
2022-10-11T06:04:18.041Z,99.99
2022-10-11T06:05:18.022Z,99.99
2022-10-11T06:06:17.953Z,99.99
2022-10-11T06:07:17.912Z,99.99
2022-10-11T06:08:17.869Z,99.99
2022-10-11T06:09:17.831Z,99.99
2022-10-11T06:10:17.784Z,99.99
2022-10-11T06:11:17.755Z,99.99
2022-10-11T06:12:17.718Z,99.99
2022-10-11T06:13:17.654Z,99.99
2022-10-11T06:14:17.613Z,99.99
2022-10-11T06:15:17.570Z,99.99
2022-10-11T06:16:17.548Z,99.99
2022-10-11T06:17:17.486Z,99.99
2022-10-11T06:18:17.454Z,99.99
2022-10-11T06:19:17.403Z,99.99
2022-10-11T06:20:17.362Z,99.99
2022-10-11T06:21:17.314Z,99.99
2022-10-11T06:22:17.271Z,99.99
2022-10-11T06:23:17.245Z,99.99
2022-10-11T06:24:17.192Z,99.99
2022-10-11T06:25:17.145Z,99.99
2022-10-11T06:26:17.131Z,99.99
2022-10-11T06:27:17.058Z,99.99
2022-10-11T06:28:17.088Z,99.99
2022-10-11T06:29:16.980Z,99.99
2022-10-11T06:30:16.932Z,99.99
2022-10-11T06:31:16.894Z,99.99
2022-10-11T06:32:16.859Z,99.99
2022-10-11T06:33:16.836Z,99.99
2022-10-11T06:34:16.761Z,99.99
2022-10-11T06:35:16.718Z,99.99
2022-10-11T06:36:16.680Z,99.99
2022-10-11T06:37:16.640Z,99.99
2022-10-11T06:38:16.607Z,99.99
2022-10-11T06:39:16.558Z,99.99
2022-10-11T06:40:16.524Z,99.99
2022-10-11T06:41:16.476Z,99.99
2022-10-11T06:42:16.427Z,99.99
2022-10-11T06:43:16.391Z,99.99
2022-10-11T06:44:16.362Z,99.99
2022-10-11T06:45:16.321Z,99.99
2022-10-11T06:46:16.261Z,99.99
2022-10-11T06:47:16.227Z,99.99
2022-10-11T06:48:16.180Z,99.99
2022-10-11T06:49:20.651Z,99.99
2022-10-11T06:50:16.110Z,99.99
2022-10-11T06:51:16.065Z,99.44
2022-10-11T06:52:16.017Z,96.67
2022-10-11T06:53:15.989Z,96.06
2022-10-11T06:54:15.938Z,96.47
2022-10-11T06:55:15.910Z,95.50
2022-10-11T06:56:15.852Z,95.91
2022-10-11T06:57:16.717Z,95.10
2022-10-11T06:58:15.776Z,93.57
2022-10-11T06:59:15.734Z,93.47
2022-10-11T07:00:15.708Z,92.85
2022-10-11T07:01:15.676Z,93.01
2022-10-11T07:02:15.624Z,92.10
2022-10-11T07:03:15.578Z,92.81
2022-10-11T07:04:15.549Z,92.81
2022-10-11T07:05:15.495Z,92.30
2022-10-11T07:06:15.456Z,92.75
2022-10-11T07:07:15.441Z,93.26
2022-10-11T07:08:15.377Z,93.01
2022-10-11T07:09:15.337Z,92.60
2022-10-11T07:10:15.300Z,92.40
2022-10-11T07:11:15.268Z,93.38
2022-10-11T07:12:15.226Z,92.72
2022-10-11T07:13:17.378Z,90.84
2022-10-11T07:14:15.141Z,90.43
2022-10-11T07:15:15.116Z,89.82
2022-10-11T07:16:15.070Z,90.29
2022-10-11T07:17:15.023Z,89.00
2022-10-11T07:18:14.990Z,89.25
2022-10-11T07:19:14.946Z,90.06
2022-10-11T07:20:14.910Z,89.59
2022-10-11T07:21:14.881Z,91.19
2022-10-11T07:22:14.841Z,92.02
2022-10-11T07:23:14.809Z,90.66
2022-10-11T07:24:14.766Z,89.02
2022-10-11T07:25:14.714Z,89.41
2022-10-11T07:26:14.681Z,90.88
2022-10-11T07:27:14.653Z,92.46
2022-10-11T07:28:14.652Z,92.25
2022-10-11T07:29:14.564Z,93.59
2022-10-11T07:30:14.534Z,92.91
2022-10-11T07:31:14.488Z,92.96
2022-10-11T07:32:14.459Z,94.23
2022-10-11T07:33:14.421Z,95.25
2022-10-11T07:34:14.375Z,95.97
2022-10-11T07:35:14.335Z,96.53
2022-10-11T07:36:14.301Z,96.47
2022-10-11T07:37:14.266Z,98.05
2022-10-11T07:38:14.222Z,98.87
2022-10-11T07:39:14.194Z,98.83
2022-10-11T07:40:14.143Z,99.44
2022-10-11T07:41:14.105Z,99.19
2022-10-11T07:42:14.071Z,97.86
2022-10-11T07:43:14.026Z,97.96
2022-10-11T07:44:13.993Z,98.07
2022-10-11T07:45:13.981Z,97.96
2022-10-11T07:46:13.923Z,97.55
2022-10-11T07:47:13.870Z,98.78
2022-10-11T07:48:13.837Z,98.68
2022-10-11T07:49:13.793Z,98.11
2022-10-11T07:50:13.762Z,99.49
2022-10-11T07:51:13.725Z,99.99
2022-10-11T07:52:13.678Z,99.99
2022-10-11T07:53:13.649Z,99.99
2022-10-11T07:54:13.604Z,99.99
2022-10-11T07:55:13.559Z,99.99
2022-10-11T07:56:13.524Z,99.99
2022-10-11T07:57:13.492Z,99.99
2022-10-11T07:58:13.444Z,99.99
2022-10-11T07:59:13.401Z,99.99
2022-10-11T08:00:13.365Z,99.99
2022-10-11T08:01:13.358Z,99.99
2022-10-11T08:02:13.281Z,99.99
2022-10-11T08:03:13.261Z,99.99
2022-10-11T08:04:13.212Z,99.99
2022-10-11T08:05:13.166Z,99.99
2022-10-11T08:06:13.127Z,99.99
2022-10-11T08:07:13.087Z,99.99
2022-10-11T08:08:13.049Z,99.99
2022-10-11T08:09:13.016Z,99.99
2022-10-11T08:10:12.969Z,99.99
2022-10-11T08:11:12.925Z,99.99
2022-10-11T08:12:12.895Z,99.99
2022-10-11T08:13:12.853Z,99.99
2022-10-11T08:14:12.814Z,99.99
2022-10-11T08:15:12.778Z,99.99
2022-10-11T08:16:12.725Z,99.99
2022-10-11T08:17:13.839Z,99.99
2022-10-11T08:18:13.289Z,99.99
2022-10-11T08:19:12.607Z,99.99
2022-10-11T08:20:12.570Z,99.99
2022-10-11T08:21:12.543Z,99.99
2022-10-11T08:22:12.490Z,99.99
2022-10-11T08:23:12.447Z,99.99
2022-10-11T08:24:12.409Z,99.99
2022-10-11T08:25:12.380Z,99.99
2022-10-11T08:26:12.333Z,99.99
2022-10-11T08:27:12.299Z,99.99
2022-10-11T08:28:12.279Z,99.99
2022-10-11T08:29:12.209Z,99.99
2022-10-11T08:30:12.172Z,99.99
2022-10-11T08:31:12.146Z,99.99
2022-10-11T08:32:12.121Z,99.99
2022-10-11T08:33:12.077Z,99.99
2022-10-11T08:34:12.012Z,99.99
2022-10-11T08:35:11.969Z,99.99
2022-10-11T08:36:11.969Z,99.99
2022-10-11T08:37:11.896Z,99.99
2022-10-11T08:38:11.849Z,99.99
2022-10-11T08:39:11.826Z,99.99
2022-10-11T08:40:11.770Z,99.99
2022-10-11T08:41:11.729Z,99.99
2022-10-11T08:42:11.689Z,99.99
2022-10-11T08:43:11.650Z,99.99
2022-10-11T08:44:12.223Z,99.99
2022-10-11T08:45:12.355Z,99.99
2022-10-11T08:46:11.534Z,99.99
2022-10-11T08:47:11.488Z,99.99
2022-10-11T08:48:11.451Z,99.99
2022-10-11T08:49:11.409Z,99.99
2022-10-11T08:50:11.382Z,99.99
2022-10-11T08:51:11.328Z,99.99
2022-10-11T08:52:11.290Z,99.99
2022-10-11T08:53:11.247Z,99.99
2022-10-11T08:54:11.218Z,99.99
2022-10-11T08:55:11.171Z,99.99
2022-10-11T08:56:11.141Z,99.99
2022-10-11T08:57:11.101Z,99.99
2022-10-11T08:58:11.049Z,99.99
2022-10-11T08:59:11.009Z,99.99
2022-10-11T09:00:11.025Z,99.99
2022-10-11T09:01:19.846Z,99.99
2022-10-11T09:02:10.887Z,99.99
2022-10-11T09:03:10.865Z,99.99
2022-10-11T09:04:10.822Z,99.99
2022-10-11T09:05:10.766Z,99.99
2022-10-11T09:06:10.727Z,99.99
2022-10-11T09:07:10.688Z,99.99
2022-10-11T09:08:10.679Z,99.99
2022-10-11T09:09:10.610Z,99.99
2022-10-11T09:10:10.579Z,99.99
2022-10-11T09:11:10.524Z,99.99
2022-10-11T09:12:10.490Z,99.99
2022-10-11T09:13:10.444Z,99.99
2022-10-11T09:14:10.405Z,99.99
2022-10-11T09:15:10.376Z,99.99
2022-10-11T09:16:10.327Z,99.99
2022-10-11T09:17:10.285Z,99.99
2022-10-11T09:18:10.246Z,99.99
2022-10-11T09:19:10.204Z,99.99
2022-10-11T09:20:10.170Z,99.99
2022-10-11T09:21:10.138Z,99.99
2022-10-11T09:22:10.086Z,99.99
2022-10-11T09:23:10.048Z,99.99
2022-10-11T09:24:10.164Z,99.99
2022-10-11T09:25:09.964Z,99.99
2022-10-11T09:26:09.934Z,99.99
2022-10-11T09:27:09.898Z,99.99
2022-10-11T09:28:09.887Z,99.99
2022-10-11T09:29:09.849Z,99.99
2022-10-11T09:30:09.766Z,99.99
2022-10-11T09:31:09.724Z,99.99
2022-10-11T09:32:09.759Z,99.99
2022-10-11T09:33:09.658Z,99.99
2022-10-11T09:34:09.608Z,99.99
2022-10-11T09:35:09.565Z,99.99
2022-10-11T09:36:09.650Z,99.99
2022-10-11T09:37:09.496Z,99.99
2022-10-11T09:38:09.448Z,99.99
2022-10-11T09:39:09.407Z,99.99
2022-10-11T09:40:09.367Z,99.99
2022-10-11T09:41:09.325Z,99.99
2022-10-11T09:42:09.289Z,99.99
2022-10-11T09:43:09.275Z,99.99
2022-10-11T09:44:09.211Z,99.99
2022-10-11T09:45:09.165Z,99.99
2022-10-11T09:46:09.265Z,99.99
2022-10-11T09:47:09.092Z,99.99
2022-10-11T09:48:09.055Z,99.99
2022-10-11T09:49:09.022Z,99.99
2022-10-11T09:50:08.970Z,99.99
2022-10-11T09:51:08.934Z,99.99
2022-10-11T09:52:08.890Z,99.99
2022-10-11T09:53:08.853Z,99.99
2022-10-11T09:54:08.815Z,99.99
2022-10-11T09:55:08.802Z,99.99
2022-10-11T09:56:09.533Z,99.99
2022-10-11T09:57:08.693Z,99.99
2022-10-11T09:58:08.667Z,99.99
2022-10-11T09:59:08.618Z,99.99
2022-10-11T10:00:08.601Z,99.99
2022-10-11T10:01:08.671Z,99.99
2022-10-11T10:02:08.575Z,99.99
2022-10-11T10:03:08.463Z,99.99
2022-10-11T10:04:08.431Z,99.99
2022-10-11T10:05:08.380Z,99.99
2022-10-11T10:06:08.859Z,99.99
2022-10-11T10:07:08.300Z,99.99
2022-10-11T10:08:08.281Z,99.99
2022-10-11T10:09:08.235Z,99.99
2022-10-11T10:10:08.183Z,99.99
2022-10-11T10:11:08.143Z,99.99
2022-10-11T10:12:08.104Z,99.99
2022-10-11T10:13:08.078Z,99.99
2022-10-11T10:14:08.023Z,99.99
2022-10-11T10:15:07.985Z,99.99
2022-10-11T10:16:08.344Z,99.99
2022-10-11T10:17:07.907Z,99.99
2022-10-11T10:18:07.868Z,99.99
2022-10-11T10:19:07.847Z,99.99
2022-10-11T10:20:07.809Z,99.99
2022-10-11T10:21:07.767Z,99.99
2022-10-11T10:22:07.714Z,99.99
2022-10-11T10:23:07.680Z,99.99
2022-10-11T10:24:07.637Z,99.99
2022-10-11T10:25:07.640Z,99.99
2022-10-11T10:26:08.011Z,99.99
2022-10-11T10:27:07.515Z,99.99
2022-10-11T10:28:07.532Z,99.99
2022-10-11T10:29:07.438Z,99.48
2022-10-11T10:30:07.407Z,99.38
2022-10-11T10:31:07.362Z,99.27
2022-10-11T10:32:14.419Z,99.54
2022-10-11T10:33:07.295Z,99.29
2022-10-11T10:34:07.268Z,97.80
2022-10-11T10:35:07.206Z,99.23
2022-10-11T10:36:07.649Z,99.32
2022-10-11T10:37:07.126Z,99.99
2022-10-11T10:38:07.090Z,99.99
2022-10-11T10:39:07.063Z,99.99
2022-10-11T10:40:07.012Z,99.99
2022-10-11T10:41:06.973Z,99.99
2022-10-11T10:42:06.938Z,99.99
2022-10-11T10:43:06.905Z,99.99
2022-10-11T10:44:06.859Z,99.99
2022-10-11T10:45:11.910Z,99.99
2022-10-11T10:46:07.271Z,99.99
2022-10-11T10:47:06.742Z,99.99
2022-10-11T10:48:06.702Z,99.99
2022-10-11T10:50:06.641Z,99.39
2022-10-11T10:51:10.352Z,99.44
2022-10-11T10:52:06.549Z,98.68
2022-10-11T10:53:06.588Z,97.16
2022-10-11T10:54:06.474Z,97.21
2022-10-11T10:55:06.434Z,95.78
2022-10-11T10:56:06.737Z,96.30
2022-10-11T10:57:06.359Z,95.17
2022-10-11T10:58:06.337Z,96.23
2022-10-11T10:59:06.279Z,97.71
2022-10-11T11:00:06.240Z,97.20
2022-10-11T11:01:06.202Z,97.81
2022-10-11T11:02:28.244Z,97.97
2022-10-11T11:03:06.126Z,97.56
2022-10-11T11:04:06.092Z,97.09
2022-10-11T11:05:06.052Z,97.16
2022-10-11T11:06:06.346Z,97.36
2022-10-11T11:07:05.985Z,97.31
2022-10-11T11:08:05.945Z,96.55
2022-10-11T11:09:05.901Z,96.20
2022-10-11T11:10:05.874Z,95.84
2022-10-11T11:11:05.834Z,95.43
2022-10-11T11:12:05.793Z,95.59
2022-10-11T11:13:05.872Z,94.27
2022-10-11T11:14:05.712Z,94.47
2022-10-11T11:15:05.672Z,94.73
2022-10-11T11:16:06.012Z,93.67
2022-10-11T11:17:05.597Z,92.25
2022-10-11T11:18:05.565Z,92.80
2022-10-11T11:19:06.333Z,92.90
2022-10-11T11:20:05.488Z,93.83
2022-10-11T11:21:05.449Z,91.82
2022-10-11T11:22:05.441Z,89.64
2022-10-11T11:23:05.377Z,88.97
2022-10-11T11:24:05.340Z,89.94
2022-10-11T11:25:05.317Z,89.43
2022-10-11T11:26:05.386Z,88.75
2022-10-11T11:27:05.232Z,88.29
2022-10-11T11:28:05.195Z,86.02
2022-10-11T11:29:05.157Z,85.62
2022-10-11T11:30:05.173Z,85.48
2022-10-11T11:31:05.458Z,84.47
2022-10-11T11:32:05.066Z,84.36
2022-10-11T11:33:05.025Z,84.16
2022-10-11T11:34:04.982Z,84.56
2022-10-11T11:35:04.954Z,83.53
2022-10-11T11:36:05.157Z,85.60
2022-10-11T11:37:04.889Z,86.41
2022-10-11T11:38:06.566Z,86.10
2022-10-11T11:39:04.818Z,86.45
2022-10-11T11:40:04.778Z,87.93
2022-10-11T11:41:05.104Z,87.69
2022-10-11T11:42:04.706Z,85.56
2022-10-11T11:43:04.677Z,87.02
2022-10-11T11:44:04.637Z,87.46
2022-10-11T11:45:04.606Z,88.32
2022-10-11T11:46:04.578Z,89.19
2022-10-11T11:47:04.554Z,87.77
2022-10-11T11:48:04.501Z,87.52
2022-10-11T11:49:04.471Z,87.59
2022-10-11T11:50:04.435Z,84.95
2022-10-11T11:51:04.711Z,86.83
2022-10-11T11:52:04.379Z,85.31
2022-10-11T11:53:04.333Z,85.82
2022-10-11T11:54:04.298Z,84.16
2022-10-11T11:55:04.412Z,85.07
2022-10-11T11:56:04.231Z,84.73
2022-10-11T11:57:04.206Z,84.36
2022-10-11T11:58:07.064Z,84.63
2022-10-11T11:59:04.128Z,83.17
2022-10-11T12:00:04.100Z,82.26
2022-10-11T12:01:04.376Z,82.87
2022-10-11T12:02:04.048Z,81.51
2022-10-11T12:03:04.012Z,80.38
2022-10-11T12:04:03.961Z,81.65
2022-10-11T12:05:03.936Z,81.25
2022-10-11T12:06:03.896Z,80.88
2022-10-11T12:07:15.950Z,81.52
2022-10-11T12:08:03.838Z,81.67
2022-10-11T12:09:03.790Z,82.54
2022-10-11T12:10:03.758Z,83.15
2022-10-11T12:11:03.938Z,83.39
2022-10-11T12:12:03.691Z,82.38
2022-10-11T12:13:03.671Z,83.15
2022-10-11T12:14:03.623Z,81.40
2022-10-11T12:15:03.592Z,82.42
2022-10-11T12:16:03.564Z,83.57
2022-10-11T12:17:03.523Z,83.73
2022-10-11T12:18:03.489Z,83.59
2022-10-11T12:19:03.470Z,82.78
2022-10-11T12:20:03.422Z,81.83
2022-10-11T12:21:03.661Z,81.09
2022-10-11T12:22:03.353Z,81.12
2022-10-11T12:23:03.322Z,80.62
2022-10-11T12:24:03.303Z,80.68
2022-10-11T12:25:03.253Z,79.36
2022-10-11T12:26:03.217Z,81.09
2022-10-11T12:27:03.188Z,79.77
2022-10-11T12:28:03.163Z,78.96
2022-10-11T12:29:03.119Z,77.88
2022-10-11T12:30:03.100Z,78.39
2022-10-11T12:31:03.300Z,79.30
2022-10-11T12:32:03.039Z,78.49
2022-10-11T12:33:02.986Z,78.08
2022-10-11T12:34:02.948Z,78.42
2022-10-11T12:35:02.919Z,79.40
2022-10-11T12:36:05.876Z,77.68
2022-10-11T12:37:06.581Z,77.17
2022-10-11T12:38:02.817Z,77.44
2022-10-11T12:39:02.783Z,75.92
2022-10-11T12:40:02.758Z,75.82
2022-10-11T12:41:02.715Z,75.31
2022-10-11T12:42:05.840Z,75.85
2022-10-11T12:43:02.652Z,75.72
2022-10-11T12:44:02.621Z,76.56
2022-10-11T12:45:02.586Z,76.43
2022-10-11T12:46:02.691Z,76.73
2022-10-11T12:47:02.512Z,76.23
2022-10-11T12:48:02.490Z,75.85
2022-10-11T12:49:02.446Z,76.53
2022-10-11T12:50:02.413Z,76.53
2022-10-11T12:51:03.311Z,75.92
2022-10-11T12:52:02.345Z,77.24
2022-10-11T12:53:02.314Z,76.32